Brothers, Oregon
Current Conditions -  °F | °C
As of 7:15 AM on Wednesday 26 Nov 2014 (Local Time) from KBDN Reporting Station
Clear Clear  
Wind Chill: 34°   Ceiling: Unl
Heat Index: 43°   Visibility: 10mi
Dew Point: 36°   Wind: 23mph
Humidity: 76%   Direction: 200°SSW
Pressure: 30.26"   Gusts: 29mph
Location:  43.81°N, 120.61°W
Report Text: KBDN 261515Z AUTO 20020G25KT 10SM CLR 06/02 A3026 RMK AO2
Loading
Personal Weather Stations






























Interactive Weather Map New forecast layout! Learn more

10-Day Weather Forecast

Advertisements
Track Severe Weather on mobile